createdAt,value
2022-11-16T00:02:13.283Z,2.50
2022-11-16T00:04:40.113Z,2.40
2022-11-16T00:07:07.313Z,2.63
2022-11-16T00:09:34.018Z,2.78
2022-11-16T00:12:03.278Z,2.35
2022-11-16T00:14:32.953Z,2.40
2022-11-16T00:17:00.092Z,2.10
2022-11-16T00:19:26.892Z,2.50
2022-11-16T00:21:53.972Z,2.97
2022-11-16T00:24:22.025Z,2.72
2022-11-16T00:26:49.083Z,2.17
2022-11-16T00:29:16.989Z,2.50
2022-11-16T00:31:44.267Z,2.55
2022-11-16T00:34:10.906Z,2.70
2022-11-16T00:36:37.459Z,2.75
2022-11-16T00:39:04.090Z,2.47
2022-11-16T00:41:30.655Z,2.38
2022-11-16T00:43:57.202Z,2.83
2022-11-16T00:46:23.753Z,2.60
2022-11-16T00:48:50.323Z,2.60
2022-11-16T00:51:16.894Z,2.72
2022-11-16T00:53:43.455Z,2.80
2022-11-16T00:56:10.019Z,3.10
2022-11-16T00:58:36.831Z,2.95
2022-11-16T01:01:08.122Z,3.00
2022-11-16T01:03:36.070Z,2.65
2022-11-16T01:06:07.521Z,3.40
2022-11-16T01:08:36.348Z,3.53
2022-11-16T01:11:22.509Z,3.05
2022-11-16T01:13:49.429Z,3.42
2022-11-16T01:16:16.947Z,3.15
2022-11-16T01:18:44.491Z,3.30
2022-11-16T01:21:11.042Z,3.38
2022-11-16T01:23:37.643Z,3.38
2022-11-16T01:26:04.527Z,3.40
2022-11-16T01:28:32.086Z,3.80
2022-11-16T01:30:59.405Z,3.50
2022-11-16T01:33:25.974Z,3.60
2022-11-16T01:35:52.575Z,3.65
2022-11-16T01:38:19.219Z,3.60
2022-11-16T01:40:45.879Z,3.30
2022-11-16T01:43:49.275Z,3.67
2022-11-16T01:46:15.821Z,3.40
2022-11-16T01:48:42.563Z,3.38
2022-11-16T01:51:09.509Z,3.42
2022-11-16T01:53:36.603Z,3.72
2022-11-16T01:56:04.003Z,3.70
2022-11-16T01:58:31.486Z,3.35
2022-11-16T02:00:58.241Z,3.30
2022-11-16T02:03:26.388Z,3.47
2022-11-16T02:05:58.871Z,3.63
2022-11-16T02:08:53.642Z,3.33
2022-11-16T02:11:29.306Z,3.20
2022-11-16T02:14:06.302Z,3.22
2022-11-16T02:17:11.437Z,4.03
2022-11-16T02:19:43.881Z,3.47
2022-11-16T02:22:13.539Z,3.78
2022-11-16T02:24:44.901Z,3.78
2022-11-16T02:27:37.419Z,3.53
2022-11-16T02:30:05.211Z,4.43
2022-11-16T02:32:36.249Z,4.32
2022-11-16T02:35:14.854Z,3.55
2022-11-16T02:37:51.886Z,4.10
2022-11-16T02:40:21.578Z,4.15
2022-11-16T02:42:52.838Z,3.75
2022-11-16T02:45:23.326Z,3.90
2022-11-16T02:47:51.687Z,4.10
2022-11-16T02:50:21.141Z,3.28
2022-11-16T02:52:47.754Z,3.88
2022-11-16T02:55:14.353Z,4.05
2022-11-16T02:57:46.466Z,3.30
2022-11-16T03:00:18.710Z,4.30
2022-11-16T03:02:52.297Z,3.42
2022-11-16T03:05:32.014Z,3.60
2022-11-16T03:08:37.606Z,4.60
2022-11-16T03:11:24.754Z,4.30
2022-11-16T03:13:52.363Z,3.95
2022-11-16T03:16:43.876Z,3.87
2022-11-16T03:19:13.818Z,4.03
2022-11-16T03:21:54.530Z,4.15
2022-11-16T03:24:21.234Z,4.22
2022-11-16T03:27:21.338Z,3.88
2022-11-16T03:30:13.929Z,4.32
2022-11-16T03:32:55.378Z,4.55
2022-11-16T03:35:24.986Z,4.35
2022-11-16T03:37:53.533Z,4.65
2022-11-16T03:42:49.571Z,4.95
2022-11-16T03:45:17.387Z,4.75
2022-11-16T03:47:43.937Z,5.40
2022-11-16T03:50:11.147Z,4.70
2022-11-16T03:52:38.114Z,4.82
2022-11-16T03:55:05.508Z,4.30
2022-11-16T03:57:32.169Z,4.38
2022-11-16T03:59:58.741Z,4.93
2022-11-16T04:02:25.484Z,4.65
2022-11-16T04:05:10.433Z,4.93
2022-11-16T04:07:55.531Z,5.07
2022-11-16T04:10:40.467Z,4.88
2022-11-16T04:13:28.023Z,5.40
2022-11-16T04:16:13.155Z,5.28
2022-11-16T04:18:57.983Z,5.30
2022-11-16T04:21:52.751Z,4.82
2022-11-16T04:24:24.323Z,5.70
2022-11-16T04:27:13.682Z,5.32
2022-11-16T04:29:40.303Z,5.85
2022-11-16T04:32:26.984Z,6.25
2022-11-16T04:35:12.730Z,5.80
2022-11-16T04:37:54.775Z,6.32
2022-11-16T04:40:29.641Z,5.55
2022-11-16T04:43:01.568Z,5.40
2022-11-16T04:45:47.192Z,5.80
2022-11-16T04:48:14.983Z,5.60
2022-11-16T04:50:41.562Z,5.85
2022-11-16T04:53:08.502Z,6.35
2022-11-16T04:55:35.340Z,5.93
2022-11-16T04:58:02.421Z,6.38
2022-11-16T05:00:29.730Z,6.90
2022-11-16T05:03:00.981Z,6.68
2022-11-16T05:05:27.789Z,6.75
2022-11-16T05:07:54.390Z,6.13
2022-11-16T05:10:21.087Z,6.70
2022-11-16T05:12:47.688Z,6.50
2022-11-16T05:15:14.292Z,6.22
2022-11-16T05:17:40.931Z,6.07
2022-11-16T05:20:26.746Z,5.28
2022-11-16T05:22:54.968Z,5.90
2022-11-16T05:25:21.888Z,6.32
2022-11-16T05:27:48.582Z,6.50
2022-11-16T05:30:15.386Z,6.75
2022-11-16T05:32:41.939Z,7.43
2022-11-16T05:35:08.782Z,6.65
2022-11-16T05:37:35.414Z,7.20
2022-11-16T05:40:02.079Z,7.10
2022-11-16T05:42:28.656Z,6.93
2022-11-16T05:44:55.272Z,7.45
2022-11-16T05:47:21.907Z,7.05
2022-11-16T05:49:48.448Z,6.10
2022-11-16T05:52:15.008Z,6.25
2022-11-16T05:54:41.563Z,6.40
2022-11-16T05:57:08.112Z,6.93
2022-11-16T05:59:34.731Z,6.93
2022-11-16T06:02:01.335Z,7.13
2022-11-16T06:04:27.883Z,6.65
2022-11-16T06:06:54.542Z,7.03
2022-11-16T06:09:21.129Z,6.57
2022-11-16T06:11:47.701Z,6.53
2022-11-16T06:14:14.319Z,5.97
2022-11-16T06:16:40.950Z,6.43
2022-11-16T06:19:07.500Z,6.88
2022-11-16T06:21:34.207Z,6.63
2022-11-16T06:24:02.660Z,6.43
2022-11-16T06:28:55.694Z,6.07
2022-11-16T06:31:22.416Z,7.28
2022-11-16T06:33:49.035Z,7.75
2022-11-16T06:36:15.644Z,6.45
2022-11-16T06:38:42.223Z,6.25
2022-11-16T06:41:08.795Z,6.35
2022-11-16T06:43:35.346Z,6.45
2022-11-16T06:46:01.946Z,6.38
2022-11-16T06:48:28.662Z,6.75
2022-11-16T06:50:55.231Z,5.97
2022-11-16T06:53:27.575Z,7.05
2022-11-16T06:55:55.460Z,6.72
2022-11-16T06:58:22.020Z,7.80
2022-11-16T07:00:48.597Z,7.53
2022-11-16T07:03:15.196Z,7.97
2022-11-16T07:05:44.603Z,7.00
2022-11-16T07:08:11.202Z,7.93
2022-11-16T07:10:38.485Z,7.30
2022-11-16T07:13:05.807Z,8.25
2022-11-16T07:15:33.206Z,7.55
2022-11-16T07:18:05.134Z,8.48
2022-11-16T07:20:32.096Z,7.05
2022-11-16T07:23:02.563Z,7.35
2022-11-16T07:25:29.400Z,7.22
2022-11-16T07:27:57.790Z,8.23
2022-11-16T07:30:24.787Z,7.00
2022-11-16T07:32:51.356Z,6.85
2022-11-16T07:35:18.022Z,7.80
2022-11-16T07:37:44.673Z,7.43
2022-11-16T07:40:11.366Z,8.23
2022-11-16T07:42:37.999Z,7.25
2022-11-16T07:45:04.944Z,8.73
2022-11-16T07:47:36.040Z,7.13
2022-11-16T07:50:02.755Z,7.32
2022-11-16T07:52:29.339Z,8.23
2022-11-16T07:54:55.910Z,8.32
2022-11-16T07:57:22.534Z,7.95
2022-11-16T07:59:49.095Z,7.45
2022-11-16T08:02:15.703Z,7.90
2022-11-16T08:04:42.305Z,7.72
2022-11-16T08:07:08.931Z,7.57
2022-11-16T08:09:37.970Z,7.25
2022-11-16T08:12:04.823Z,6.78
2022-11-16T08:14:31.404Z,8.20
2022-11-16T08:16:57.982Z,8.25
2022-11-16T08:19:24.588Z,7.40
2022-11-16T08:21:51.157Z,7.45
2022-11-16T08:24:18.230Z,7.70
2022-11-16T08:26:44.827Z,7.45
2022-11-16T08:29:11.651Z,7.88
2022-11-16T08:31:38.319Z,7.50
2022-11-16T08:34:04.988Z,7.80
2022-11-16T08:36:31.538Z,7.15
2022-11-16T08:38:58.135Z,8.15
2022-11-16T08:41:24.745Z,9.20
2022-11-16T08:43:53.244Z,7.32
2022-11-16T08:46:20.458Z,7.60
2022-11-16T08:48:47.108Z,8.13
2022-11-16T08:51:18.510Z,7.25
2022-11-16T08:53:48.355Z,7.82
2022-11-16T08:56:16.742Z,7.20
2022-11-16T08:58:44.417Z,8.27
2022-11-16T09:01:17.063Z,7.60
2022-11-16T09:03:43.898Z,8.15
2022-11-16T09:06:11.196Z,7.35
2022-11-16T09:08:40.414Z,7.90
2022-11-16T09:11:08.363Z,7.60
2022-11-16T09:13:34.954Z,8.68
2022-11-16T09:16:01.952Z,7.95
2022-11-16T09:18:29.027Z,6.85
2022-11-16T09:20:55.896Z,6.97
2022-11-16T09:23:25.489Z,8.05
2022-11-16T09:25:52.762Z,7.78
2022-11-16T09:28:20.150Z,7.00
2022-11-16T09:30:48.818Z,6.90
2022-11-16T09:33:15.482Z,6.18
2022-11-16T09:35:42.134Z,6.63
2022-11-16T09:38:10.051Z,6.38
2022-11-16T09:40:38.351Z,7.18
2022-11-16T09:43:32.364Z,7.28
2022-11-16T09:46:06.281Z,6.47
2022-11-16T09:48:36.092Z,6.65
2022-11-16T09:51:08.191Z,6.78
2022-11-16T09:53:55.359Z,6.80
2022-11-16T09:56:23.668Z,6.15
2022-11-16T09:58:57.438Z,6.28
2022-11-16T10:01:35.247Z,6.25
2022-11-16T10:04:12.791Z,6.35
2022-11-16T10:07:02.645Z,5.67
2022-11-16T10:09:30.289Z,6.90
2022-11-16T10:12:22.391Z,6.40
2022-11-16T10:15:01.542Z,6.07
2022-11-16T10:17:42.182Z,7.63
2022-11-16T10:20:14.599Z,6.40
2022-11-16T10:22:50.275Z,6.80
2022-11-16T10:25:20.786Z,6.55
2022-11-16T10:28:13.730Z,7.88
2022-11-16T10:30:58.188Z,6.70
2022-11-16T10:33:25.699Z,6.07
2022-11-16T10:35:56.989Z,6.20
2022-11-16T10:38:33.180Z,5.95
2022-11-16T10:41:18.431Z,6.07
2022-11-16T10:43:45.505Z,4.82
2022-11-16T10:46:23.450Z,5.10
2022-11-16T10:49:13.551Z,5.75
2022-11-16T10:51:40.136Z,4.68
2022-11-16T10:54:17.422Z,5.40
2022-11-16T10:56:46.730Z,4.72
2022-11-16T10:59:15.286Z,4.70
2022-11-16T11:04:25.852Z,5.20
2022-11-16T11:07:00.199Z,4.70
2022-11-16T11:09:28.082Z,4.65
2022-11-16T11:12:20.394Z,4.60
2022-11-16T11:15:02.977Z,4.63
2022-11-16T11:17:30.896Z,4.68
2022-11-16T11:20:03.671Z,4.95
2022-11-16T11:22:31.950Z,4.90
2022-11-16T11:24:59.190Z,4.97
2022-11-16T11:27:31.095Z,4.57
2022-11-16T11:30:00.868Z,4.10
2022-11-16T11:32:32.814Z,4.82
2022-11-16T11:35:01.040Z,5.00
2022-11-16T11:37:32.513Z,4.97
2022-11-16T11:40:20.147Z,4.93
2022-11-16T11:42:54.324Z,5.40
2022-11-16T11:45:44.159Z,5.75
2022-11-16T11:48:34.248Z,6.10
2022-11-16T11:51:21.839Z,6.18
2022-11-16T11:53:55.852Z,6.22
2022-11-16T11:56:23.642Z,6.75
2022-11-16T11:58:50.415Z,7.32
2022-11-16T12:01:39.025Z,7.30
2022-11-16T12:04:23.691Z,8.45
2022-11-16T12:06:58.959Z,8.48
2022-11-16T12:09:44.268Z,7.32
2022-11-16T12:12:14.642Z,8.00
2022-11-16T12:15:03.284Z,8.70
2022-11-16T12:18:03.987Z,7.20
2022-11-16T12:20:43.196Z,7.50
2022-11-16T12:23:28.362Z,7.00
2022-11-16T12:26:16.095Z,6.15
2022-11-16T12:29:00.651Z,5.93
2022-11-16T12:31:42.492Z,6.57
2022-11-16T12:34:36.691Z,5.80
2022-11-16T12:37:16.862Z,4.40
2022-11-16T12:39:45.457Z,5.07
2022-11-16T12:44:44.265Z,5.15
2022-11-16T12:47:27.373Z,4.53
2022-11-16T12:50:21.692Z,4.95
2022-11-16T12:53:22.570Z,5.13
2022-11-16T12:55:55.187Z,4.70
2022-11-16T12:58:49.184Z,4.60
2022-11-16T13:01:26.421Z,4.60
2022-11-16T13:03:55.393Z,5.18
2022-11-16T13:06:35.362Z,5.30
2022-11-16T13:09:05.983Z,4.15
2022-11-16T13:11:57.390Z,2.28
2022-11-16T13:14:29.216Z,2.60
2022-11-16T13:16:56.255Z,2.95
2022-11-16T13:19:23.736Z,2.72
2022-11-16T13:22:13.826Z,3.38
2022-11-16T13:24:46.481Z,2.42
2022-11-16T13:27:28.391Z,2.78
2022-11-16T13:30:01.223Z,2.65
2022-11-16T13:32:30.864Z,2.67
2022-11-16T13:34:59.095Z,3.10
2022-11-16T13:37:38.169Z,2.88
2022-11-16T13:40:04.960Z,2.78
2022-11-16T13:42:53.307Z,2.90
2022-11-16T13:47:58.269Z,2.00
2022-11-16T13:50:37.429Z,2.10
2022-11-16T13:53:57.534Z,1.80
2022-11-16T13:55:56.845Z,2.17
2022-11-16T13:58:23.895Z,2.15
2022-11-16T14:01:03.168Z,1.70
2022-11-16T14:03:38.566Z,2.45
2022-11-16T14:06:28.302Z,2.10
2022-11-16T14:08:58.821Z,2.92
2022-11-16T14:11:38.943Z,1.80
2022-11-16T14:15:03.743Z,1.90
2022-11-16T14:17:54.004Z,2.20
2022-11-16T14:20:51.920Z,1.42
2022-11-16T14:23:48.171Z,1.50
2022-11-16T14:26:18.758Z,1.10
2022-11-16T14:28:55.427Z,1.77
2022-11-16T14:31:29.655Z,1.40
2022-11-16T14:33:58.257Z,1.20
2022-11-16T14:39:24.992Z,1.38
2022-11-16T14:41:52.040Z,1.70
2022-11-16T14:44:24.984Z,1.58
2022-11-16T14:46:51.551Z,2.92
2022-11-16T14:49:18.553Z,2.55
2022-11-16T14:51:47.908Z,2.25
2022-11-16T14:54:38.536Z,1.75
2022-11-16T14:57:08.463Z,1.77
2022-11-16T14:59:35.279Z,1.40
2022-11-16T15:02:12.290Z,1.15
2022-11-16T15:04:38.932Z,1.50
2022-11-16T15:07:05.848Z,1.20
2022-11-16T15:09:38.742Z,1.65
2022-11-16T15:12:25.847Z,1.35
2022-11-16T15:14:54.998Z,1.20
2022-11-16T15:17:30.094Z,1.48
2022-11-16T15:20:02.075Z,1.27
2022-11-16T15:22:31.038Z,1.17
2022-11-16T15:24:59.776Z,1.55
2022-11-16T15:27:36.532Z,1.40
2022-11-16T15:30:14.355Z,1.35
2022-11-16T15:32:45.349Z,1.30
2022-11-16T15:35:19.316Z,1.40
2022-11-16T15:37:45.993Z,1.45
2022-11-16T15:40:13.803Z,1.30
2022-11-16T15:42:41.879Z,1.38
2022-11-16T15:45:24.725Z,1.55
2022-11-16T15:47:54.924Z,1.85
2022-11-16T15:50:25.838Z,1.55
2022-11-16T15:52:58.116Z,1.42
2022-11-16T15:55:24.729Z,2.45
2022-11-16T15:58:25.687Z,2.10
2022-11-16T16:00:53.358Z,2.95
2022-11-16T16:03:31.860Z,2.77
2022-11-16T16:08:35.616Z,2.92
2022-11-16T16:11:20.344Z,3.05
2022-11-16T16:16:29.865Z,2.65
2022-11-16T16:19:01.577Z,3.30
2022-11-16T16:21:45.639Z,3.97
2022-11-16T16:24:42.385Z,3.55
2022-11-16T16:27:20.727Z,4.20
2022-11-16T16:29:49.549Z,4.82
2022-11-16T16:32:20.864Z,3.97
2022-11-16T16:34:47.435Z,4.53
2022-11-16T16:37:14.128Z,5.50
2022-11-16T16:39:42.098Z,5.75
2022-11-16T16:42:11.766Z,6.50
2022-11-16T16:44:39.788Z,7.18
2022-11-16T16:47:06.769Z,7.32
2022-11-16T16:49:33.424Z,9.18
2022-11-16T16:52:00.234Z,10.05
2022-11-16T16:54:28.756Z,11.07
2022-11-16T16:59:24.110Z,11.17
2022-11-16T17:01:51.691Z,11.88
2022-11-16T17:04:18.715Z,12.20
2022-11-16T17:06:46.752Z,13.40
2022-11-16T17:09:13.901Z,12.77
2022-11-16T17:11:40.720Z,12.63
2022-11-16T17:14:08.262Z,13.98
2022-11-16T17:16:36.093Z,12.63
2022-11-16T17:19:04.100Z,11.55
2022-11-16T17:21:31.263Z,12.82
2022-11-16T17:23:58.071Z,12.43
2022-11-16T17:26:29.250Z,11.70
2022-11-16T17:28:57.088Z,12.93
2022-11-16T17:31:24.552Z,12.25
2022-11-16T17:33:51.486Z,12.98
2022-11-16T17:36:18.365Z,11.50
2022-11-16T17:38:45.746Z,12.88
2022-11-16T17:41:15.336Z,12.85
2022-11-16T17:43:43.960Z,12.48
2022-11-16T17:48:38.081Z,12.20
2022-11-16T17:51:05.546Z,11.37
2022-11-16T17:53:36.567Z,12.77
2022-11-16T17:56:04.194Z,12.60
2022-11-16T17:58:31.050Z,11.35
2022-11-16T18:00:57.953Z,11.60
2022-11-16T18:03:25.255Z,12.93
2022-11-16T18:05:52.006Z,14.15
2022-11-16T18:08:18.620Z,11.50
2022-11-16T18:10:45.228Z,12.90
2022-11-16T18:13:11.791Z,11.77
2022-11-16T18:15:42.304Z,13.90
2022-11-16T18:18:09.186Z,13.40
2022-11-16T18:20:37.014Z,15.52
2022-11-16T18:23:04.694Z,13.52
2022-11-16T18:25:34.604Z,12.47
2022-11-16T18:28:01.232Z,13.88
2022-11-16T18:30:27.849Z,13.98
2022-11-16T18:32:54.551Z,14.80
2022-11-16T18:35:21.148Z,13.60
2022-11-16T18:37:47.726Z,13.80
2022-11-16T18:40:15.046Z,14.32
2022-11-16T18:42:41.918Z,14.93
2022-11-16T18:45:08.982Z,13.77
2022-11-16T18:47:35.590Z,14.98
2022-11-16T18:50:02.544Z,15.77
2022-11-16T18:52:29.362Z,14.98
2022-11-16T18:54:56.003Z,15.35
2022-11-16T18:57:22.567Z,14.40
2022-11-16T18:59:49.151Z,16.17
2022-11-16T19:02:15.764Z,16.08
2022-11-16T19:04:42.780Z,14.57
2022-11-16T19:07:09.391Z,15.25
2022-11-16T19:09:36.012Z,13.25
2022-11-16T19:12:02.588Z,16.58
2022-11-16T19:14:29.172Z,14.00
2022-11-16T19:16:57.318Z,13.35
2022-11-16T19:19:25.383Z,13.95
2022-11-16T19:21:52.210Z,13.68
2022-11-16T19:24:18.986Z,13.25
2022-11-16T19:26:45.926Z,13.68
2022-11-16T19:29:12.544Z,13.55
2022-11-16T19:31:39.152Z,13.63
2022-11-16T19:34:07.612Z,13.95
2022-11-16T19:36:36.046Z,14.52
2022-11-16T19:39:03.710Z,13.77
2022-11-16T19:41:30.342Z,13.87
2022-11-16T19:43:59.981Z,14.02
2022-11-16T19:46:28.405Z,14.27
2022-11-16T19:48:55.571Z,14.48
2022-11-16T19:51:24.405Z,14.05
2022-11-16T19:53:51.396Z,13.30
2022-11-16T19:56:20.277Z,14.25
2022-11-16T19:58:46.918Z,13.85
2022-11-16T20:01:18.793Z,12.70
2022-11-16T20:03:46.252Z,14.07
2022-11-16T20:06:15.019Z,14.80
2022-11-16T20:08:47.104Z,13.23
2022-11-16T20:11:18.487Z,12.93
2022-11-16T20:13:45.107Z,14.43
2022-11-16T20:16:12.810Z,14.30
2022-11-16T20:18:41.017Z,14.93
2022-11-16T20:21:08.978Z,14.70
2022-11-16T20:23:35.916Z,15.32
2022-11-16T20:26:06.883Z,14.52
2022-11-16T20:28:35.159Z,14.55
2022-11-16T20:31:05.197Z,15.18
2022-11-16T20:33:35.574Z,13.63
2022-11-16T20:36:03.824Z,14.70
2022-11-16T20:38:35.939Z,14.55
2022-11-16T20:41:16.728Z,13.63
2022-11-16T20:43:44.380Z,13.10
2022-11-16T20:46:13.101Z,15.20
2022-11-16T20:48:40.816Z,13.18
2022-11-16T20:51:08.426Z,14.07
2022-11-16T20:53:35.596Z,14.48
2022-11-16T20:56:03.254Z,13.80
2022-11-16T20:58:30.923Z,14.43
2022-11-16T21:01:06.095Z,12.67
2022-11-16T21:03:33.242Z,13.45
2022-11-16T21:06:00.119Z,13.05
2022-11-16T21:08:26.836Z,13.43
2022-11-16T21:10:54.097Z,12.77
2022-11-16T21:13:39.549Z,13.20
2022-11-16T21:16:08.390Z,12.75
2022-11-16T21:18:34.992Z,12.73
2022-11-16T21:21:06.951Z,13.40
2022-11-16T21:23:35.032Z,12.85
2022-11-16T21:26:05.638Z,12.82
2022-11-16T21:28:32.884Z,12.77
2022-11-16T21:31:05.617Z,12.23
2022-11-16T21:33:33.220Z,12.98
2022-11-16T21:36:07.664Z,13.30
2022-11-16T21:38:34.440Z,12.38
2022-11-16T21:41:01.657Z,14.48
2022-11-16T21:43:28.448Z,13.63
2022-11-16T21:46:01.530Z,14.38
2022-11-16T21:48:28.135Z,13.82
2022-11-16T21:51:14.595Z,12.98
2022-11-16T21:53:41.236Z,13.88
2022-11-16T21:56:13.252Z,12.70
2022-11-16T21:58:40.314Z,13.02
2022-11-16T22:01:07.085Z,14.40
2022-11-16T22:03:33.998Z,11.93
2022-11-16T22:06:21.009Z,12.85
2022-11-16T22:08:48.283Z,13.38
2022-11-16T22:11:15.928Z,12.77
2022-11-16T22:13:43.281Z,12.03
2022-11-16T22:16:11.721Z,13.35
2022-11-16T22:18:38.871Z,13.95
2022-11-16T22:21:06.955Z,14.15
2022-11-16T22:23:34.190Z,13.13
2022-11-16T22:26:02.432Z,13.95
2022-11-16T22:28:29.121Z,12.90
2022-11-16T22:31:02.406Z,14.57
2022-11-16T22:33:29.437Z,13.00
2022-11-16T22:35:56.378Z,14.25
2022-11-16T22:38:23.430Z,13.50
2022-11-16T22:40:54.001Z,14.40
2022-11-16T22:43:21.923Z,14.80
2022-11-16T22:45:48.787Z,13.40
2022-11-16T22:48:15.620Z,12.40
2022-11-16T22:50:42.426Z,13.52
2022-11-16T22:53:09.890Z,14.10
2022-11-16T22:55:37.759Z,14.88
2022-11-16T22:58:05.582Z,15.27
2022-11-16T23:00:37.522Z,14.50
2022-11-16T23:03:07.554Z,13.63
2022-11-16T23:05:34.208Z,14.95
2022-11-16T23:08:00.792Z,15.57
2022-11-16T23:10:27.399Z,14.93
2022-11-16T23:13:12.699Z,16.05
2022-11-16T23:15:51.041Z,14.70
2022-11-16T23:18:19.575Z,14.40
2022-11-16T23:23:49.451Z,15.07
2022-11-16T23:26:41.874Z,15.45
2022-11-16T23:29:10.022Z,13.40
2022-11-16T23:31:37.344Z,15.27
2022-11-16T23:34:04.859Z,15.98
2022-11-16T23:36:31.490Z,14.48
2022-11-16T23:38:58.106Z,13.93
2022-11-16T23:41:43.247Z,13.60
2022-11-16T23:44:09.868Z,13.63
2022-11-16T23:46:36.517Z,13.32
2022-11-16T23:49:03.234Z,13.00
2022-11-16T23:51:29.802Z,12.32
2022-11-16T23:53:56.547Z,13.63
2022-11-16T23:56:23.506Z,12.18
2022-11-16T23:58:50.281Z,13.23
